sensor_id;sensor_type;location;lat;lon;timestamp;temperature;humidity
20885;DHT22;10602;48.000;9.654;2022-08-20T00:01:24;16.80;99.90
20885;DHT22;10602;48.000;9.654;2022-08-20T00:03:52;16.80;99.90
20885;DHT22;10602;48.000;9.654;2022-08-20T00:06:22;16.80;99.90
20885;DHT22;10602;48.000;9.654;2022-08-20T00:08:50;16.80;99.90
20885;DHT22;10602;48.000;9.654;2022-08-20T00:11:24;16.80;99.90
20885;DHT22;10602;48.000;9.654;2022-08-20T00:13:52;16.70;99.90
20885;DHT22;10602;48.000;9.654;2022-08-20T00:16:21;16.70;99.90
20885;DHT22;10602;48.000;9.654;2022-08-20T00:18:49;16.70;99.90
20885;DHT22;10602;48.000;9.654;2022-08-20T00:21:19;16.70;99.90
20885;DHT22;10602;48.000;9.654;2022-08-20T00:23:48;16.70;99.90
20885;DHT22;10602;48.000;9.654;2022-08-20T00:26:18;16.70;99.90
20885;DHT22;10602;48.000;9.654;2022-08-20T00:28:46;16.70;99.90
20885;DHT22;10602;48.000;9.654;2022-08-20T00:31:16;16.70;99.90
20885;DHT22;10602;48.000;9.654;2022-08-20T00:33:45;16.70;99.90
20885;DHT22;10602;48.000;9.654;2022-08-20T00:36:13;16.70;99.90
20885;DHT22;10602;48.000;9.654;2022-08-20T00:38:44;16.70;99.90
20885;DHT22;10602;48.000;9.654;2022-08-20T00:41:16;16.70;99.90
20885;DHT22;10602;48.000;9.654;2022-08-20T00:44:04;16.70;99.90
20885;DHT22;10602;48.000;9.654;2022-08-20T00:46:23;16.60;99.90
20885;DHT22;10602;48.000;9.654;2022-08-20T00:48:50;16.70;99.90
20885;DHT22;10602;48.000;9.654;2022-08-20T00:51:32;16.60;99.90
20885;DHT22;10602;48.000;9.654;2022-08-20T00:54:15;16.70;99.90
20885;DHT22;10602;48.000;9.654;2022-08-20T00:56:50;16.60;99.90
20885;DHT22;10602;48.000;9.654;2022-08-20T00:59:17;16.70;99.90
20885;DHT22;10602;48.000;9.654;2022-08-20T01:01:44;16.70;99.90
20885;DHT22;10602;48.000;9.654;2022-08-20T01:04:12;16.60;99.90
20885;DHT22;10602;48.000;9.654;2022-08-20T01:06:40;16.60;99.90
20885;DHT22;10602;48.000;9.654;2022-08-20T01:09:07;16.60;99.90
20885;DHT22;10602;48.000;9.654;2022-08-20T01:11:35;16.50;99.90
20885;DHT22;10602;48.000;9.654;2022-08-20T01:14:10;16.50;99.90
20885;DHT22;10602;48.000;9.654;2022-08-20T01:16:51;16.50;99.90
20885;DHT22;10602;48.000;9.654;2022-08-20T01:19:34;16.40;99.90
20885;DHT22;10602;48.000;9.654;2022-08-20T01:21:59;16.40;99.90
20885;DHT22;10602;48.000;9.654;2022-08-20T01:24:31;16.30;99.90
20885;DHT22;10602;48.000;9.654;2022-08-20T01:27:02;16.30;99.90
20885;DHT22;10602;48.000;9.654;2022-08-20T01:29:37;16.20;99.90
20885;DHT22;10602;48.000;9.654;2022-08-20T01:32:00;16.20;99.90
20885;DHT22;10602;48.000;9.654;2022-08-20T01:34:28;16.20;99.90
20885;DHT22;10602;48.000;9.654;2022-08-20T01:36:57;16.20;99.90
20885;DHT22;10602;48.000;9.654;2022-08-20T01:39:27;16.10;99.90
20885;DHT22;10602;48.000;9.654;2022-08-20T01:44:45;16.00;99.90
20885;DHT22;10602;48.000;9.654;2022-08-20T01:47:26;16.00;99.90
20885;DHT22;10602;48.000;9.654;2022-08-20T01:49:56;16.00;99.90
20885;DHT22;10602;48.000;9.654;2022-08-20T01:52:37;16.00;99.90
20885;DHT22;10602;48.000;9.654;2022-08-20T01:55:07;16.00;99.90
20885;DHT22;10602;48.000;9.654;2022-08-20T01:57:36;16.00;99.90
20885;DHT22;10602;48.000;9.654;2022-08-20T02:00:07;15.90;99.90
20885;DHT22;10602;48.000;9.654;2022-08-20T02:02:35;15.90;99.90
20885;DHT22;10602;48.000;9.654;2022-08-20T02:05:03;15.90;99.90
20885;DHT22;10602;48.000;9.654;2022-08-20T02:07:31;15.90;99.90
20885;DHT22;10602;48.000;9.654;2022-08-20T02:09:59;15.80;99.90
20885;DHT22;10602;48.000;9.654;2022-08-20T02:12:27;15.80;99.90
20885;DHT22;10602;48.000;9.654;2022-08-20T02:14:54;15.80;99.90
20885;DHT22;10602;48.000;9.654;2022-08-20T02:17:31;15.80;99.90
20885;DHT22;10602;48.000;9.654;2022-08-20T02:20:00;15.90;99.90
20885;DHT22;10602;48.000;9.654;2022-08-20T02:25:07;15.90;99.90
20885;DHT22;10602;48.000;9.654;2022-08-20T02:27:39;15.90;99.90
20885;DHT22;10602;48.000;9.654;2022-08-20T02:30:10;15.90;99.90
20885;DHT22;10602;48.000;9.654;2022-08-20T02:32:38;15.90;99.90
20885;DHT22;10602;48.000;9.654;2022-08-20T02:35:08;15.90;99.90
20885;DHT22;10602;48.000;9.654;2022-08-20T02:37:41;15.90;99.90
20885;DHT22;10602;48.000;9.654;2022-08-20T02:40:13;15.90;99.90
20885;DHT22;10602;48.000;9.654;2022-08-20T02:42:40;15.90;99.90
20885;DHT22;10602;48.000;9.654;2022-08-20T02:45:10;15.90;99.90
20885;DHT22;10602;48.000;9.654;2022-08-20T02:47:38;15.90;99.90
20885;DHT22;10602;48.000;9.654;2022-08-20T02:50:10;15.90;99.90
20885;DHT22;10602;48.000;9.654;2022-08-20T02:52:36;15.90;99.90
20885;DHT22;10602;48.000;9.654;2022-08-20T02:55:04;16.00;99.90
20885;DHT22;10602;48.000;9.654;2022-08-20T02:57:32;15.90;99.90
20885;DHT22;10602;48.000;9.654;2022-08-20T02:59:59;16.00;99.90
20885;DHT22;10602;48.000;9.654;2022-08-20T03:02:27;16.00;99.90
20885;DHT22;10602;48.000;9.654;2022-08-20T03:04:55;16.00;99.90
20885;DHT22;10602;48.000;9.654;2022-08-20T03:07:22;16.10;99.90
20885;DHT22;10602;48.000;9.654;2022-08-20T03:09:50;16.10;99.90
20885;DHT22;10602;48.000;9.654;2022-08-20T03:12:17;16.10;99.90
20885;DHT22;10602;48.000;9.654;2022-08-20T03:14:45;16.10;99.90
20885;DHT22;10602;48.000;9.654;2022-08-20T03:17:12;16.20;99.90
20885;DHT22;10602;48.000;9.654;2022-08-20T03:19:40;16.10;99.90
20885;DHT22;10602;48.000;9.654;2022-08-20T03:22:08;16.20;99.90
20885;DHT22;10602;48.000;9.654;2022-08-20T03:24:35;16.20;99.90
20885;DHT22;10602;48.000;9.654;2022-08-20T03:27:03;16.20;99.90
20885;DHT22;10602;48.000;9.654;2022-08-20T03:29:31;16.20;99.90
20885;DHT22;10602;48.000;9.654;2022-08-20T03:31:58;16.30;99.90
20885;DHT22;10602;48.000;9.654;2022-08-20T03:34:26;16.30;99.90
20885;DHT22;10602;48.000;9.654;2022-08-20T03:36:53;16.30;99.90
20885;DHT22;10602;48.000;9.654;2022-08-20T03:39:21;16.30;99.90
20885;DHT22;10602;48.000;9.654;2022-08-20T03:41:48;16.30;99.90
20885;DHT22;10602;48.000;9.654;2022-08-20T03:44:16;16.30;99.90
20885;DHT22;10602;48.000;9.654;2022-08-20T03:46:44;16.30;99.90
20885;DHT22;10602;48.000;9.654;2022-08-20T03:49:11;16.30;99.90
20885;DHT22;10602;48.000;9.654;2022-08-20T03:51:39;16.30;99.90
20885;DHT22;10602;48.000;9.654;2022-08-20T03:54:07;16.30;99.90
20885;DHT22;10602;48.000;9.654;2022-08-20T03:56:36;16.30;99.90
20885;DHT22;10602;48.000;9.654;2022-08-20T03:59:03;16.30;99.90
20885;DHT22;10602;48.000;9.654;2022-08-20T04:01:31;16.30;99.90
20885;DHT22;10602;48.000;9.654;2022-08-20T04:03:59;16.30;99.90
20885;DHT22;10602;48.000;9.654;2022-08-20T04:06:27;16.30;99.90
20885;DHT22;10602;48.000;9.654;2022-08-20T04:08:56;16.20;99.90
20885;DHT22;10602;48.000;9.654;2022-08-20T04:11:24;16.30;99.90
20885;DHT22;10602;48.000;9.654;2022-08-20T04:13:51;16.20;99.90
20885;DHT22;10602;48.000;9.654;2022-08-20T04:16:19;16.20;99.90
20885;DHT22;10602;48.000;9.654;2022-08-20T04:18:46;16.20;99.90
20885;DHT22;10602;48.000;9.654;2022-08-20T04:21:14;16.10;99.90
20885;DHT22;10602;48.000;9.654;2022-08-20T04:23:41;16.10;99.90
20885;DHT22;10602;48.000;9.654;2022-08-20T04:26:09;16.00;99.90
20885;DHT22;10602;48.000;9.654;2022-08-20T04:28:36;16.00;99.90
20885;DHT22;10602;48.000;9.654;2022-08-20T04:31:04;16.00;99.90
20885;DHT22;10602;48.000;9.654;2022-08-20T04:33:31;15.90;99.90
20885;DHT22;10602;48.000;9.654;2022-08-20T04:35:59;15.90;99.90
20885;DHT22;10602;48.000;9.654;2022-08-20T04:38:29;15.80;99.90
20885;DHT22;10602;48.000;9.654;2022-08-20T04:40:56;15.80;99.90
20885;DHT22;10602;48.000;9.654;2022-08-20T04:43:27;15.80;99.90
20885;DHT22;10602;48.000;9.654;2022-08-20T04:45:56;15.70;99.90
20885;DHT22;10602;48.000;9.654;2022-08-20T04:48:25;15.70;99.90
20885;DHT22;10602;48.000;9.654;2022-08-20T04:50:55;15.70;99.90
20885;DHT22;10602;48.000;9.654;2022-08-20T04:53:24;15.60;99.90
20885;DHT22;10602;48.000;9.654;2022-08-20T04:55:56;15.70;99.90
20885;DHT22;10602;48.000;9.654;2022-08-20T04:58:26;15.60;99.90
20885;DHT22;10602;48.000;9.654;2022-08-20T05:00:58;15.60;99.90
20885;DHT22;10602;48.000;9.654;2022-08-20T05:03:26;15.60;99.90
20885;DHT22;10602;48.000;9.654;2022-08-20T05:05:54;15.60;99.90
20885;DHT22;10602;48.000;9.654;2022-08-20T05:08:23;15.60;99.90
20885;DHT22;10602;48.000;9.654;2022-08-20T05:10:53;15.60;99.90
20885;DHT22;10602;48.000;9.654;2022-08-20T05:13:21;15.60;99.90
20885;DHT22;10602;48.000;9.654;2022-08-20T05:15:48;15.60;99.90
20885;DHT22;10602;48.000;9.654;2022-08-20T05:18:19;15.60;99.90
20885;DHT22;10602;48.000;9.654;2022-08-20T05:20:48;15.60;99.90
20885;DHT22;10602;48.000;9.654;2022-08-20T05:23:18;15.60;99.90
20885;DHT22;10602;48.000;9.654;2022-08-20T05:25:48;15.60;99.90
20885;DHT22;10602;48.000;9.654;2022-08-20T05:28:20;15.60;99.90
20885;DHT22;10602;48.000;9.654;2022-08-20T05:30:49;15.60;99.90
20885;DHT22;10602;48.000;9.654;2022-08-20T05:33:20;15.60;99.90
20885;DHT22;10602;48.000;9.654;2022-08-20T05:35:49;15.70;99.90
20885;DHT22;10602;48.000;9.654;2022-08-20T05:38:19;15.70;99.90
20885;DHT22;10602;48.000;9.654;2022-08-20T05:40:47;15.70;99.90
20885;DHT22;10602;48.000;9.654;2022-08-20T05:43:15;15.80;99.90
20885;DHT22;10602;48.000;9.654;2022-08-20T05:45:45;15.90;99.90
20885;DHT22;10602;48.000;9.654;2022-08-20T05:48:17;16.00;99.90
20885;DHT22;10602;48.000;9.654;2022-08-20T05:50:46;16.10;99.90
20885;DHT22;10602;48.000;9.654;2022-08-20T05:53:16;16.20;99.90
20885;DHT22;10602;48.000;9.654;2022-08-20T05:55:45;16.20;99.90
20885;DHT22;10602;48.000;9.654;2022-08-20T05:58:25;16.40;99.90
20885;DHT22;10602;48.000;9.654;2022-08-20T06:00:53;16.50;99.90
20885;DHT22;10602;48.000;9.654;2022-08-20T06:03:22;16.70;99.90
20885;DHT22;10602;48.000;9.654;2022-08-20T06:06:08;16.90;99.90
20885;DHT22;10602;48.000;9.654;2022-08-20T06:08:36;17.10;99.90
20885;DHT22;10602;48.000;9.654;2022-08-20T06:11:04;17.20;99.90
20885;DHT22;10602;48.000;9.654;2022-08-20T06:13:31;17.30;99.90
20885;DHT22;10602;48.000;9.654;2022-08-20T06:16:00;17.40;99.90
20885;DHT22;10602;48.000;9.654;2022-08-20T06:18:27;17.40;99.90
20885;DHT22;10602;48.000;9.654;2022-08-20T07:17:06;19.80;99.90
20885;DHT22;10602;48.000;9.654;2022-08-20T07:19:35;19.80;99.90
20885;DHT22;10602;48.000;9.654;2022-08-20T07:22:03;19.80;99.90
20885;DHT22;10602;48.000;9.654;2022-08-20T07:24:30;20.10;99.90
20885;DHT22;10602;48.000;9.654;2022-08-20T07:26:58;20.30;99.90
20885;DHT22;10602;48.000;9.654;2022-08-20T07:29:26;20.40;99.90
20885;DHT22;10602;48.000;9.654;2022-08-20T07:31:55;20.30;99.90
20885;DHT22;10602;48.000;9.654;2022-08-20T07:34:40;20.20;99.90
20885;DHT22;10602;48.000;9.654;2022-08-20T07:37:08;20.30;99.90
20885;DHT22;10602;48.000;9.654;2022-08-20T07:39:36;20.40;99.90
20885;DHT22;10602;48.000;9.654;2022-08-20T07:42:03;20.30;99.90
20885;DHT22;10602;48.000;9.654;2022-08-20T07:44:32;20.50;99.90
20885;DHT22;10602;48.000;9.654;2022-08-20T07:47:00;20.40;99.90
20885;DHT22;10602;48.000;9.654;2022-08-20T07:49:29;20.40;99.90
20885;DHT22;10602;48.000;9.654;2022-08-20T07:51:57;20.50;99.90
20885;DHT22;10602;48.000;9.654;2022-08-20T07:54:25;20.90;99.90
20885;DHT22;10602;48.000;9.654;2022-08-20T07:56:53;21.00;99.90
20885;DHT22;10602;48.000;9.654;2022-08-20T07:59:20;21.40;99.90
20885;DHT22;10602;48.000;9.654;2022-08-20T08:01:49;21.60;99.90
20885;DHT22;10602;48.000;9.654;2022-08-20T08:04:16;22.10;99.90
20885;DHT22;10602;48.000;9.654;2022-08-20T08:06:44;22.00;99.90
20885;DHT22;10602;48.000;9.654;2022-08-20T08:09:12;22.10;99.90
20885;DHT22;10602;48.000;9.654;2022-08-20T08:11:44;21.90;99.90
20885;DHT22;10602;48.000;9.654;2022-08-20T08:14:13;21.80;99.90
20885;DHT22;10602;48.000;9.654;2022-08-20T08:16:42;21.60;99.90
20885;DHT22;10602;48.000;9.654;2022-08-20T08:19:11;21.40;99.90
20885;DHT22;10602;48.000;9.654;2022-08-20T08:21:40;21.50;99.90
20885;DHT22;10602;48.000;9.654;2022-08-20T08:24:10;21.80;99.90
20885;DHT22;10602;48.000;9.654;2022-08-20T08:26:37;22.10;99.90
20885;DHT22;10602;48.000;9.654;2022-08-20T08:29:05;22.50;99.90
20885;DHT22;10602;48.000;9.654;2022-08-20T08:31:52;22.90;99.90
20885;DHT22;10602;48.000;9.654;2022-08-20T08:37:19;23.20;99.90
20885;DHT22;10602;48.000;9.654;2022-08-20T08:40:00;23.10;99.90
20885;DHT22;10602;48.000;9.654;2022-08-20T08:42:40;22.70;99.90
20885;DHT22;10602;48.000;9.654;2022-08-20T08:45:08;22.40;99.90
20885;DHT22;10602;48.000;9.654;2022-08-20T08:47:37;22.40;99.90
20885;DHT22;10602;48.000;9.654;2022-08-20T08:50:09;21.90;99.90
20885;DHT22;10602;48.000;9.654;2022-08-20T08:52:38;21.80;99.90
20885;DHT22;10602;48.000;9.654;2022-08-20T08:55:10;21.50;99.90
20885;DHT22;10602;48.000;9.654;2022-08-20T08:57:38;21.50;99.90
20885;DHT22;10602;48.000;9.654;2022-08-20T09:00:12;21.40;99.90
20885;DHT22;10602;48.000;9.654;2022-08-20T09:03:18;21.60;99.90
20885;DHT22;10602;48.000;9.654;2022-08-20T09:05:19;21.90;99.90
20885;DHT22;10602;48.000;9.654;2022-08-20T09:07:49;22.50;99.90
20885;DHT22;10602;48.000;9.654;2022-08-20T09:10:19;22.60;99.90
20885;DHT22;10602;48.000;9.654;2022-08-20T09:12:47;22.60;99.90
20885;DHT22;10602;48.000;9.654;2022-08-20T09:15:15;22.90;99.90
20885;DHT22;10602;48.000;9.654;2022-08-20T09:17:42;22.90;99.90
20885;DHT22;10602;48.000;9.654;2022-08-20T09:20:10;23.00;99.90
20885;DHT22;10602;48.000;9.654;2022-08-20T09:22:37;22.90;99.90
20885;DHT22;10602;48.000;9.654;2022-08-20T09:25:07;22.30;99.90
20885;DHT22;10602;48.000;9.654;2022-08-20T09:27:35;22.40;99.90
20885;DHT22;10602;48.000;9.654;2022-08-20T09:30:03;22.10;99.90
20885;DHT22;10602;48.000;9.654;2022-08-20T09:32:30;22.00;99.90
20885;DHT22;10602;48.000;9.654;2022-08-20T09:34:58;21.30;99.90
20885;DHT22;10602;48.000;9.654;2022-08-20T09:37:28;21.30;99.90
20885;DHT22;10602;48.000;9.654;2022-08-20T09:39:56;21.40;99.90
20885;DHT22;10602;48.000;9.654;2022-08-20T09:42:26;22.30;99.90
20885;DHT22;10602;48.000;9.654;2022-08-20T09:44:54;23.40;99.90
20885;DHT22;10602;48.000;9.654;2022-08-20T09:47:22;24.00;99.90
20885;DHT22;10602;48.000;9.654;2022-08-20T09:49:49;25.00;99.90
20885;DHT22;10602;48.000;9.654;2022-08-20T09:52:28;25.50;99.90
20885;DHT22;10602;48.000;9.654;2022-08-20T09:54:59;25.70;99.90
20885;DHT22;10602;48.000;9.654;2022-08-20T09:57:27;26.20;99.90
20885;DHT22;10602;48.000;9.654;2022-08-20T09:59:58;26.00;99.90
20885;DHT22;10602;48.000;9.654;2022-08-20T10:02:26;25.50;99.30
20885;DHT22;10602;48.000;9.654;2022-08-20T10:04:54;25.30;99.90
20885;DHT22;10602;48.000;9.654;2022-08-20T10:07:22;24.20;99.90
20885;DHT22;10602;48.000;9.654;2022-08-20T10:09:54;24.10;99.90
20885;DHT22;10602;48.000;9.654;2022-08-20T10:12:27;24.90;99.90
20885;DHT22;10602;48.000;9.654;2022-08-20T10:14:55;24.40;99.90
20885;DHT22;10602;48.000;9.654;2022-08-20T10:17:41;24.10;99.90
20885;DHT22;10602;48.000;9.654;2022-08-20T10:20:16;23.20;99.90
20885;DHT22;10602;48.000;9.654;2022-08-20T10:22:40;22.80;99.90
20885;DHT22;10602;48.000;9.654;2022-08-20T10:25:20;23.00;99.90
20885;DHT22;10602;48.000;9.654;2022-08-20T10:27:58;24.10;99.90
20885;DHT22;10602;48.000;9.654;2022-08-20T10:30:29;24.70;99.90
20885;DHT22;10602;48.000;9.654;2022-08-20T10:33:00;24.10;99.90
20885;DHT22;10602;48.000;9.654;2022-08-20T10:35:31;24.20;99.90
20885;DHT22;10602;48.000;9.654;2022-08-20T10:38:08;24.30;99.90
20885;DHT22;10602;48.000;9.654;2022-08-20T10:40:38;24.10;99.90
20885;DHT22;10602;48.000;9.654;2022-08-20T10:43:15;24.50;99.90
20885;DHT22;10602;48.000;9.654;2022-08-20T10:45:51;25.60;99.30
20885;DHT22;10602;48.000;9.654;2022-08-20T10:48:32;26.80;96.50
20885;DHT22;10602;48.000;9.654;2022-08-20T10:51:04;27.10;93.90
20885;DHT22;10602;48.000;9.654;2022-08-20T10:53:40;28.10;91.70
20885;DHT22;10602;48.000;9.654;2022-08-20T10:56:11;28.00;90.10
20885;DHT22;10602;48.000;9.654;2022-08-20T10:58:46;27.10;91.00
20885;DHT22;10602;48.000;9.654;2022-08-20T11:04:18;25.30;95.90
20885;DHT22;10602;48.000;9.654;2022-08-20T11:06:56;25.00;96.60
20885;DHT22;10602;48.000;9.654;2022-08-20T11:09:30;25.30;96.50
20885;DHT22;10602;48.000;9.654;2022-08-20T11:12:07;25.60;96.20
20885;DHT22;10602;48.000;9.654;2022-08-20T11:14:39;26.70;91.50
20885;DHT22;10602;48.000;9.654;2022-08-20T11:17:29;26.70;89.90
20885;DHT22;10602;48.000;9.654;2022-08-20T11:19:56;26.80;88.90
20885;DHT22;10602;48.000;9.654;2022-08-20T11:22:28;26.80;88.20
20885;DHT22;10602;48.000;9.654;2022-08-20T11:25:10;27.30;87.40
20885;DHT22;10602;48.000;9.654;2022-08-20T11:27:39;26.40;90.00
20885;DHT22;10602;48.000;9.654;2022-08-20T11:30:10;25.40;89.20
20885;DHT22;10602;48.000;9.654;2022-08-20T11:32:47;24.00;92.40
20885;DHT22;10602;48.000;9.654;2022-08-20T11:35:18;23.30;95.80
20885;DHT22;10602;48.000;9.654;2022-08-20T11:37:58;23.50;98.30
20885;DHT22;10602;48.000;9.654;2022-08-20T11:40:31;25.30;96.40
20885;DHT22;10602;48.000;9.654;2022-08-20T11:43:03;26.80;92.30
20885;DHT22;10602;48.000;9.654;2022-08-20T11:45:38;27.20;90.30
20885;DHT22;10602;48.000;9.654;2022-08-20T11:48:09;26.30;90.80
20885;DHT22;10602;48.000;9.654;2022-08-20T11:50:45;25.10;91.60
20885;DHT22;10602;48.000;9.654;2022-08-20T11:53:24;24.90;94.40
20885;DHT22;10602;48.000;9.654;2022-08-20T11:55:53;25.00;93.70
20885;DHT22;10602;48.000;9.654;2022-08-20T11:58:24;24.60;94.60
20885;DHT22;10602;48.000;9.654;2022-08-20T12:01:04;24.10;94.60
20885;DHT22;10602;48.000;9.654;2022-08-20T12:03:34;25.30;94.50
20885;DHT22;10602;48.000;9.654;2022-08-20T12:06:09;27.20;90.70
20885;DHT22;10602;48.000;9.654;2022-08-20T12:08:42;28.30;87.30
20885;DHT22;10602;48.000;9.654;2022-08-20T12:11:11;26.40;87.20
20885;DHT22;10602;48.000;9.654;2022-08-20T12:13:44;26.00;90.80
20885;DHT22;10602;48.000;9.654;2022-08-20T12:16:13;25.50;92.80
20885;DHT22;10602;48.000;9.654;2022-08-20T12:18:41;25.30;93.50
20885;DHT22;10602;48.000;9.654;2022-08-20T12:21:08;25.30;94.60
20885;DHT22;10602;48.000;9.654;2022-08-20T12:23:37;25.00;99.90
20885;DHT22;10602;48.000;9.654;2022-08-20T12:26:04;24.60;99.90
20885;DHT22;10602;48.000;9.654;2022-08-20T12:28:32;24.10;99.90
20885;DHT22;10602;48.000;9.654;2022-08-20T12:30:59;23.60;99.90
20885;DHT22;10602;48.000;9.654;2022-08-20T12:33:27;23.30;99.90
20885;DHT22;10602;48.000;9.654;2022-08-20T12:35:56;23.20;99.90
20885;DHT22;10602;48.000;9.654;2022-08-20T12:38:24;22.90;99.90
20885;DHT22;10602;48.000;9.654;2022-08-20T12:40:51;22.80;99.90
20885;DHT22;10602;48.000;9.654;2022-08-20T12:43:19;22.60;99.90
20885;DHT22;10602;48.000;9.654;2022-08-20T12:45:46;22.20;99.90
20885;DHT22;10602;48.000;9.654;2022-08-20T12:48:14;21.90;99.90
20885;DHT22;10602;48.000;9.654;2022-08-20T12:50:42;21.70;99.90
20885;DHT22;10602;48.000;9.654;2022-08-20T12:53:11;21.60;99.90
20885;DHT22;10602;48.000;9.654;2022-08-20T12:55:39;22.00;99.90
20885;DHT22;10602;48.000;9.654;2022-08-20T12:58:08;22.30;99.90
20885;DHT22;10602;48.000;9.654;2022-08-20T13:00:41;22.60;99.90
20885;DHT22;10602;48.000;9.654;2022-08-20T13:03:11;22.90;99.90
20885;DHT22;10602;48.000;9.654;2022-08-20T13:05:39;23.20;99.90
20885;DHT22;10602;48.000;9.654;2022-08-20T13:08:09;23.80;99.90
20885;DHT22;10602;48.000;9.654;2022-08-20T13:10:40;24.00;99.90
20885;DHT22;10602;48.000;9.654;2022-08-20T13:13:12;24.50;99.90
20885;DHT22;10602;48.000;9.654;2022-08-20T13:15:40;24.80;99.90
20885;DHT22;10602;48.000;9.654;2022-08-20T13:18:08;24.80;99.90
20885;DHT22;10602;48.000;9.654;2022-08-20T13:20:35;24.90;99.90
20885;DHT22;10602;48.000;9.654;2022-08-20T13:23:04;24.50;99.90
20885;DHT22;10602;48.000;9.654;2022-08-20T13:25:32;24.90;99.90
20885;DHT22;10602;48.000;9.654;2022-08-20T13:28:02;24.80;99.90
20885;DHT22;10602;48.000;9.654;2022-08-20T13:30:32;25.10;99.90
20885;DHT22;10602;48.000;9.654;2022-08-20T13:33:00;24.90;99.90
20885;DHT22;10602;48.000;9.654;2022-08-20T13:35:28;25.00;99.90
20885;DHT22;10602;48.000;9.654;2022-08-20T13:37:55;25.10;99.90
20885;DHT22;10602;48.000;9.654;2022-08-20T13:40:23;25.20;99.90
20885;DHT22;10602;48.000;9.654;2022-08-20T13:42:51;25.20;99.90
20885;DHT22;10602;48.000;9.654;2022-08-20T13:45:18;24.70;99.90
20885;DHT22;10602;48.000;9.654;2022-08-20T13:47:49;23.90;99.90
20885;DHT22;10602;48.000;9.654;2022-08-20T13:50:17;23.80;99.90
20885;DHT22;10602;48.000;9.654;2022-08-20T13:52:46;25.00;99.90
20885;DHT22;10602;48.000;9.654;2022-08-20T13:55:16;25.60;97.80
20885;DHT22;10602;48.000;9.654;2022-08-20T13:57:45;25.80;97.80
20885;DHT22;10602;48.000;9.654;2022-08-20T14:00:23;26.00;96.90
20885;DHT22;10602;48.000;9.654;2022-08-20T14:02:47;25.90;96.50
20885;DHT22;10602;48.000;9.654;2022-08-20T14:05:16;25.50;97.30
20885;DHT22;10602;48.000;9.654;2022-08-20T14:07:43;25.00;99.40
20885;DHT22;10602;48.000;9.654;2022-08-20T14:10:16;24.60;99.90
20885;DHT22;10602;48.000;9.654;2022-08-20T14:12:44;23.70;99.90
20885;DHT22;10602;48.000;9.654;2022-08-20T14:15:12;23.40;99.90
20885;DHT22;10602;48.000;9.654;2022-08-20T14:17:43;23.20;99.90
20885;DHT22;10602;48.000;9.654;2022-08-20T14:20:16;23.10;99.90
20885;DHT22;10602;48.000;9.654;2022-08-20T14:22:45;23.00;99.90
20885;DHT22;10602;48.000;9.654;2022-08-20T14:25:15;22.70;99.90
20885;DHT22;10602;48.000;9.654;2022-08-20T14:27:43;22.80;99.90
20885;DHT22;10602;48.000;9.654;2022-08-20T14:30:14;22.90;99.90
20885;DHT22;10602;48.000;9.654;2022-08-20T14:32:42;22.80;99.90
20885;DHT22;10602;48.000;9.654;2022-08-20T14:35:09;22.70;99.90
20885;DHT22;10602;48.000;9.654;2022-08-20T14:37:40;22.70;99.90
20885;DHT22;10602;48.000;9.654;2022-08-20T14:40:10;22.70;99.90
20885;DHT22;10602;48.000;9.654;2022-08-20T14:42:38;22.70;99.90
20885;DHT22;10602;48.000;9.654;2022-08-20T14:45:09;22.80;99.90
20885;DHT22;10602;48.000;9.654;2022-08-20T14:47:40;22.90;99.90
20885;DHT22;10602;48.000;9.654;2022-08-20T14:50:12;22.90;99.90
20885;DHT22;10602;48.000;9.654;2022-08-20T14:52:39;23.30;99.90
20885;DHT22;10602;48.000;9.654;2022-08-20T14:55:12;23.30;99.90
20885;DHT22;10602;48.000;9.654;2022-08-20T14:57:40;23.20;99.90
20885;DHT22;10602;48.000;9.654;2022-08-20T15:00:11;22.70;99.90
20885;DHT22;10602;48.000;9.654;2022-08-20T15:02:39;22.50;99.90
20885;DHT22;10602;48.000;9.654;2022-08-20T15:05:09;22.70;99.90
20885;DHT22;10602;48.000;9.654;2022-08-20T15:07:43;22.90;99.90
20885;DHT22;10602;48.000;9.654;2022-08-20T15:10:10;22.90;99.90
20885;DHT22;10602;48.000;9.654;2022-08-20T15:12:38;23.20;99.90
20885;DHT22;10602;48.000;9.654;2022-08-20T15:15:07;23.40;99.90
20885;DHT22;10602;48.000;9.654;2022-08-20T15:17:35;22.90;99.90
20885;DHT22;10602;48.000;9.654;2022-08-20T15:20:05;22.70;99.90
20885;DHT22;10602;48.000;9.654;2022-08-20T15:22:35;22.70;99.90
20885;DHT22;10602;48.000;9.654;2022-08-20T15:25:04;22.50;99.90
20885;DHT22;10602;48.000;9.654;2022-08-20T15:27:32;22.40;99.90
20885;DHT22;10602;48.000;9.654;2022-08-20T15:30:04;22.20;99.90
20885;DHT22;10602;48.000;9.654;2022-08-20T15:32:32;22.30;99.90
20885;DHT22;10602;48.000;9.654;2022-08-20T15:35:00;22.50;99.90
20885;DHT22;10602;48.000;9.654;2022-08-20T15:37:28;22.50;99.90
20885;DHT22;10602;48.000;9.654;2022-08-20T15:39:56;22.40;99.90
20885;DHT22;10602;48.000;9.654;2022-08-20T15:42:23;22.00;99.90
20885;DHT22;10602;48.000;9.654;2022-08-20T15:44:51;21.80;99.90
20885;DHT22;10602;48.000;9.654;2022-08-20T15:47:25;21.60;99.90
20885;DHT22;10602;48.000;9.654;2022-08-20T15:50:04;21.50;99.90
20885;DHT22;10602;48.000;9.654;2022-08-20T15:52:36;21.40;99.90
20885;DHT22;10602;48.000;9.654;2022-08-20T15:55:03;21.30;99.90
20885;DHT22;10602;48.000;9.654;2022-08-20T15:57:48;21.30;99.90
20885;DHT22;10602;48.000;9.654;2022-08-20T16:00:17;21.20;99.90
20885;DHT22;10602;48.000;9.654;2022-08-20T16:03:11;21.20;99.90
20885;DHT22;10602;48.000;9.654;2022-08-20T16:05:43;21.20;99.90
20885;DHT22;10602;48.000;9.654;2022-08-20T16:08:41;21.20;99.90
20885;DHT22;10602;48.000;9.654;2022-08-20T16:11:11;21.00;99.90
20885;DHT22;10602;48.000;9.654;2022-08-20T16:13:53;21.20;99.90
20885;DHT22;10602;48.000;9.654;2022-08-20T16:16:32;21.10;99.90
20885;DHT22;10602;48.000;9.654;2022-08-20T16:19:01;21.00;99.90
20885;DHT22;10602;48.000;9.654;2022-08-20T16:21:32;20.90;99.90
20885;DHT22;10602;48.000;9.654;2022-08-20T16:24:00;21.00;99.90
20885;DHT22;10602;48.000;9.654;2022-08-20T16:26:36;21.00;99.90
20885;DHT22;10602;48.000;9.654;2022-08-20T16:29:19;21.20;99.90
20885;DHT22;10602;48.000;9.654;2022-08-20T16:32:03;21.20;99.90
20885;DHT22;10602;48.000;9.654;2022-08-20T16:34:41;21.00;99.90
20885;DHT22;10602;48.000;9.654;2022-08-20T16:42:52;20.90;99.90
20885;DHT22;10602;48.000;9.654;2022-08-20T16:45:29;21.00;99.90
20885;DHT22;10602;48.000;9.654;2022-08-20T16:48:03;21.20;99.90
20885;DHT22;10602;48.000;9.654;2022-08-20T16:53:11;20.90;99.90
20885;DHT22;10602;48.000;9.654;2022-08-20T16:55:38;21.00;99.90
20885;DHT22;10602;48.000;9.654;2022-08-20T16:58:07;21.00;99.90
20885;DHT22;10602;48.000;9.654;2022-08-20T17:00:34;21.20;99.90
20885;DHT22;10602;48.000;9.654;2022-08-20T17:03:05;21.30;99.90
20885;DHT22;10602;48.000;9.654;2022-08-20T17:05:50;21.30;99.90